createdAt,value
2022-10-13T00:20:21.907Z,96655.79
2022-10-13T00:22:49.886Z,96651.61
2022-10-13T00:25:18.050Z,96648.66
2022-10-13T00:27:47.822Z,96652.70
2022-10-13T00:32:00.318Z,96647.10
2022-10-13T00:33:40.781Z,96647.16
2022-10-13T01:04:26.819Z,96637.77
2022-10-13T01:06:58.187Z,96633.73
2022-10-13T01:09:28.590Z,96637.08
2022-10-13T01:12:07.757Z,96632.42
2022-10-13T01:14:51.980Z,96631.53
2022-10-13T01:38:00.037Z,96638.76
2022-10-13T01:55:25.973Z,96637.14
2022-10-13T02:12:28.810Z,96628.67
2022-10-13T02:18:36.032Z,96639.61
2022-10-13T02:21:07.312Z,96639.48
2022-10-13T02:23:36.029Z,96641.11
2022-10-13T02:26:04.139Z,96633.77
2022-10-13T02:28:32.191Z,96634.83
2022-10-13T02:31:00.235Z,96634.39
2022-10-13T02:33:28.399Z,96634.36
2022-10-13T02:35:56.447Z,96636.23
2022-10-13T02:38:24.529Z,96639.24
2022-10-13T02:40:52.547Z,96641.89
2022-10-13T02:43:22.502Z,96641.91
2022-10-13T02:45:50.433Z,96640.48
2022-10-13T02:48:18.391Z,96642.20
2022-10-13T02:50:47.663Z,96645.81
2022-10-13T02:53:15.663Z,96646.83
2022-10-13T02:55:43.601Z,96648.16
2022-10-13T02:58:11.610Z,96650.60
2022-10-13T03:00:39.772Z,96649.70
2022-10-13T03:03:07.917Z,96655.08
2022-10-13T03:05:36.215Z,96659.73
2022-10-13T03:08:04.720Z,96658.79
2022-10-13T03:10:32.743Z,96657.80
2022-10-13T03:13:00.844Z,96658.11
2022-10-13T03:23:54.417Z,96651.55
2022-10-13T03:26:23.979Z,96652.86
2022-10-13T03:28:52.738Z,96651.73
2022-10-13T03:31:20.779Z,96647.47
2022-10-13T03:33:48.858Z,96642.00
2022-10-13T03:36:17.362Z,96642.19
2022-10-13T03:38:47.621Z,96644.42
2022-10-13T03:41:18.222Z,96643.38
2022-10-13T03:43:50.935Z,96639.50
2022-10-13T03:46:19.341Z,96639.49
2022-10-13T03:48:48.242Z,96639.45
2022-10-13T03:51:19.047Z,96638.53
2022-10-13T03:53:50.998Z,96634.74
2022-10-13T03:56:25.191Z,96631.59
2022-10-13T03:58:59.114Z,96631.30
2022-10-13T04:01:29.445Z,96631.60
2022-10-13T04:03:58.915Z,96635.45
2022-10-13T04:06:26.888Z,96640.03
2022-10-13T04:08:55.855Z,96641.95
2022-10-13T04:11:24.783Z,96642.33
2022-10-13T04:13:56.725Z,96646.77
2022-10-13T04:16:27.979Z,96645.65
2022-10-13T04:23:58.068Z,96641.34
2022-10-13T04:36:31.224Z,96638.11
2022-10-13T05:20:11.909Z,96626.78
2022-10-13T05:22:39.790Z,96624.80
2022-10-13T05:25:07.965Z,96625.34
2022-10-13T05:27:35.879Z,96629.27
2022-10-13T05:30:08.114Z,96628.33
2022-10-13T05:32:36.233Z,96622.78
2022-10-13T05:35:04.373Z,96625.38
2022-10-13T05:37:32.353Z,96627.59
2022-10-13T05:40:00.373Z,96628.47
2022-10-13T05:42:29.572Z,96625.83
2022-10-13T05:44:57.577Z,96626.63
2022-10-13T05:47:28.252Z,96631.23
2022-10-13T05:49:57.137Z,96630.70
2022-10-13T05:52:26.583Z,96636.52
2022-10-13T05:55:02.774Z,96636.96
2022-10-13T05:57:34.958Z,96637.91
2022-10-13T06:00:09.366Z,96641.73
2022-10-13T06:02:46.522Z,96641.73
2022-10-13T06:05:18.035Z,96642.33
2022-10-13T06:07:48.138Z,96646.27
2022-10-13T06:10:16.209Z,96650.55
2022-10-13T06:12:44.344Z,96660.04
2022-10-13T06:15:12.229Z,96667.41
2022-10-13T06:17:40.743Z,96665.95
2022-10-13T06:20:09.236Z,96661.95
2022-10-13T06:22:38.059Z,96663.49
2022-10-13T06:25:08.032Z,96663.66
2022-10-13T06:27:35.912Z,96668.21
2022-10-13T06:30:04.570Z,96666.73
2022-10-13T06:32:34.255Z,96668.91
2022-10-13T06:35:03.488Z,96671.89
2022-10-13T06:37:31.463Z,96672.75
2022-10-13T06:39:59.333Z,96675.39
2022-10-13T06:42:30.993Z,96671.08
2022-10-13T06:45:11.122Z,96673.60
2022-10-13T06:47:41.338Z,96674.31
2022-10-13T06:50:09.687Z,96678.40
2022-10-13T06:52:37.931Z,96677.75
2022-10-13T06:55:06.305Z,96673.35
2022-10-13T06:57:34.459Z,96673.18
2022-10-13T07:00:07.202Z,96671.93
2022-10-13T07:02:36.207Z,96674.55
2022-10-13T07:05:04.378Z,96673.43
2022-10-13T07:07:32.447Z,96675.33
2022-10-13T07:10:00.319Z,96673.16
2022-10-13T07:12:28.608Z,96670.48
2022-10-13T07:14:56.987Z,96664.80
2022-10-13T07:17:24.972Z,96666.39
2022-10-13T07:19:57.097Z,96667.60
2022-10-13T07:22:26.851Z,96669.52
2022-10-13T07:24:54.802Z,96669.55
2022-10-13T07:27:23.533Z,96668.67
2022-10-13T07:29:51.850Z,96665.99
2022-10-13T07:32:19.842Z,96665.01
2022-10-13T07:34:47.865Z,96664.90
2022-10-13T07:37:15.818Z,96665.89
2022-10-13T07:39:43.785Z,96666.75
2022-10-13T07:42:11.639Z,96668.13
2022-10-13T07:44:39.515Z,96663.17
2022-10-13T07:47:07.477Z,96665.27
2022-10-13T07:49:35.368Z,96666.73
2022-10-13T07:52:05.025Z,96665.61
2022-10-13T07:54:32.999Z,96662.73
2022-10-13T07:57:00.878Z,96663.67
2022-10-13T07:59:28.784Z,96660.98
2022-10-13T08:01:56.847Z,96663.61
2022-10-13T08:04:25.573Z,96660.98
2022-10-13T08:06:53.538Z,96659.00
2022-10-13T08:09:21.580Z,96658.41
2022-10-13T08:11:49.486Z,96663.05
2022-10-13T08:14:17.592Z,96661.90
2022-10-13T08:16:48.738Z,96659.02
2022-10-13T08:19:22.238Z,96654.71
2022-10-13T08:21:58.316Z,96652.75
2022-10-13T08:24:28.413Z,96652.38
2022-10-13T08:26:56.581Z,96650.60
2022-10-13T08:29:24.803Z,96654.14
2022-10-13T08:31:54.373Z,96657.89
2022-10-13T08:34:23.801Z,96660.33
2022-10-13T08:36:54.601Z,96659.69
2022-10-13T08:39:24.388Z,96663.73
2022-10-13T08:41:54.452Z,96664.36
2022-10-13T08:47:36.529Z,96668.51
2022-10-13T08:50:13.487Z,96672.59
2022-10-13T08:52:58.525Z,96673.15
2022-10-13T08:55:44.755Z,96672.97
2022-10-13T08:58:18.999Z,96674.23
2022-10-13T09:00:47.039Z,96674.65
2022-10-13T09:03:27.839Z,96673.64
2022-10-13T09:06:27.272Z,96674.56
2022-10-13T09:08:58.771Z,96673.45
2022-10-13T13:40:28.769Z,96491.91
2022-10-13T13:42:56.824Z,96493.00
2022-10-13T13:45:27.318Z,96489.30
2022-10-13T13:48:00.390Z,96489.47
2022-10-13T13:50:35.676Z,96491.05
2022-10-13T13:53:06.425Z,96491.01
2022-10-13T13:55:35.849Z,96491.44
2022-10-13T13:58:04.459Z,96495.91
2022-10-13T14:00:32.405Z,96490.78
2022-10-13T14:03:00.339Z,96492.96
2022-10-13T14:05:28.248Z,96492.65
2022-10-13T14:07:58.080Z,96492.27
2022-10-13T14:10:26.805Z,96491.08
2022-10-13T14:12:54.874Z,96489.02
2022-10-13T14:15:27.218Z,96491.98
2022-10-13T14:17:56.960Z,96493.38
2022-10-13T14:20:24.845Z,96490.99
2022-10-13T14:22:52.798Z,96492.17
2022-10-13T14:25:20.943Z,96490.38
2022-10-13T14:27:48.801Z,96491.41
2022-10-13T14:30:16.967Z,96490.77
2022-10-13T14:32:44.912Z,96493.66
2022-10-13T14:35:12.916Z,96493.79
2022-10-13T14:37:40.851Z,96493.84
2022-10-13T14:40:09.341Z,96497.15
2022-10-13T14:42:38.985Z,96494.27
2022-10-13T14:45:08.578Z,96493.81
2022-10-13T14:47:36.627Z,96493.74
2022-10-13T14:50:05.119Z,96492.48
2022-10-13T14:52:32.992Z,96492.38
2022-10-13T14:55:00.855Z,96492.70
2022-10-13T14:57:28.715Z,96495.52
2022-10-13T15:00:00.862Z,96498.27
2022-10-13T15:02:30.264Z,96497.70
2022-10-13T15:04:58.097Z,96498.63
2022-10-13T15:07:25.907Z,96501.10
2022-10-13T15:10:04.975Z,96497.10
2022-10-13T15:12:34.687Z,96494.06
2022-10-13T15:15:03.451Z,96495.14
2022-10-13T15:17:33.398Z,96497.90
2022-10-13T15:20:01.661Z,96499.92
2022-10-13T15:22:29.635Z,96499.04
2022-10-13T15:24:57.487Z,96496.95
2022-10-13T15:27:25.442Z,96501.81
2022-10-13T15:29:53.282Z,96505.27
2022-10-13T15:32:21.959Z,96503.05
2022-10-13T15:34:55.910Z,96502.23
2022-10-13T15:37:23.822Z,96500.24
2022-10-13T15:39:56.855Z,96499.40
2022-10-13T15:42:25.505Z,96500.80
2022-10-13T15:45:10.703Z,96500.05
2022-10-13T15:47:39.642Z,96501.84
2022-10-13T15:50:09.899Z,96503.40
2022-10-13T15:52:41.476Z,96501.83
2022-10-13T15:55:11.903Z,96501.30
2022-10-13T15:57:40.492Z,96497.16
2022-10-13T16:00:11.348Z,96496.02
2022-10-13T16:02:43.667Z,96492.38
2022-10-13T16:05:14.069Z,96492.92
2022-10-13T16:07:42.818Z,96493.14
2022-10-13T16:10:13.496Z,96493.54
2022-10-13T16:12:48.359Z,96499.38
2022-10-13T16:15:18.470Z,96500.27
2022-10-13T16:17:46.562Z,96501.01
2022-10-13T16:20:14.805Z,96503.05
2022-10-13T16:22:42.798Z,96504.35
2022-10-13T16:25:11.481Z,96508.09
2022-10-13T16:27:43.849Z,96507.70
2022-10-13T16:30:12.819Z,96511.34
2022-10-13T16:32:41.340Z,96513.66
2022-10-13T16:35:09.441Z,96514.39
2022-10-13T16:37:37.556Z,96518.20
2022-10-13T16:40:05.948Z,96512.67
2022-10-13T16:42:34.933Z,96514.70
2022-10-13T16:45:05.528Z,96511.25
2022-10-13T16:47:33.386Z,96509.55
2022-10-13T16:50:01.317Z,96511.46
2022-10-13T16:52:29.769Z,96508.36
2022-10-13T16:54:57.680Z,96508.09
2022-10-13T16:57:26.001Z,96506.11
2022-10-13T16:59:53.931Z,96509.48
2022-10-13T17:02:21.819Z,96510.33
2022-10-13T17:04:49.743Z,96508.77
2022-10-13T17:07:17.662Z,96508.58
2022-10-13T17:09:45.602Z,96507.23
2022-10-13T17:12:13.545Z,96506.66
2022-10-13T17:14:41.411Z,96504.73
2022-10-13T17:17:09.411Z,96503.48
2022-10-13T17:19:37.332Z,96506.21
2022-10-13T17:22:05.279Z,96503.23
2022-10-13T17:24:33.307Z,96501.84
2022-10-13T17:27:01.244Z,96508.77
2022-10-13T17:29:29.410Z,96506.02
2022-10-13T17:31:57.493Z,96508.69
2022-10-13T17:34:25.371Z,96508.21
2022-10-13T17:36:53.193Z,96504.48
2022-10-13T17:39:21.005Z,96503.45
2022-10-13T17:41:49.153Z,96507.46
2022-10-13T17:44:20.662Z,96501.91
2022-10-13T17:46:50.146Z,96500.85
2022-10-13T17:49:19.319Z,96504.83
2022-10-13T17:51:51.518Z,96507.27
2022-10-13T17:54:20.473Z,96504.29
2022-10-13T17:56:49.717Z,96502.80
2022-10-13T17:59:18.382Z,96500.95
2022-10-13T18:01:46.416Z,96499.89
2022-10-13T18:04:17.489Z,96501.50
2022-10-13T18:06:45.811Z,96498.35
2022-10-13T18:09:17.967Z,96494.48
2022-10-13T18:11:50.609Z,96492.52
2022-10-13T18:14:20.750Z,96491.66
2022-10-13T18:16:50.976Z,96489.66
2022-10-13T18:19:19.488Z,96489.10
2022-10-13T18:21:47.634Z,96491.23
2022-10-13T18:24:16.099Z,96495.92
2022-10-13T18:26:44.022Z,96492.83
2022-10-13T18:29:13.163Z,96488.63
2022-10-13T18:31:42.195Z,96490.36
2022-10-13T18:34:17.154Z,96489.34
2022-10-13T18:36:47.587Z,96487.97
2022-10-13T18:39:21.487Z,96493.12
2022-10-13T18:41:50.679Z,96496.77
2022-10-13T18:44:19.784Z,96494.84
2022-10-13T18:46:52.485Z,96492.94
2022-10-13T18:49:23.421Z,96495.42
2022-10-13T18:51:52.119Z,96493.42
2022-10-13T18:54:20.449Z,96494.36
2022-10-13T18:56:48.491Z,96491.66
2022-10-13T18:59:17.790Z,96494.58
2022-10-13T19:01:45.947Z,96495.08
2022-10-13T19:04:16.466Z,96493.95
2022-10-13T19:06:45.162Z,96494.48
2022-10-13T19:09:15.978Z,96496.94
2022-10-13T19:11:44.276Z,96496.02
2022-10-13T19:14:14.234Z,96498.28
2022-10-13T19:16:43.910Z,96496.23
2022-10-13T19:19:14.710Z,96496.08
2022-10-13T19:21:43.722Z,96496.42
2022-10-13T19:24:12.545Z,96500.20
2022-10-13T19:26:44.748Z,96493.02
2022-10-13T19:29:16.152Z,96495.30
2022-10-13T19:31:46.768Z,96495.63
2022-10-13T19:34:26.388Z,96491.26
2022-10-13T19:37:55.702Z,96489.95
2022-10-13T19:40:25.582Z,96489.14
2022-10-13T19:42:55.438Z,96488.17
2022-10-13T19:45:59.603Z,96490.45
2022-10-13T19:48:54.563Z,96487.23
2022-10-13T19:52:16.985Z,96488.55
2022-10-13T19:54:47.112Z,96492.32
2022-10-13T19:57:16.944Z,96487.65
2022-10-13T20:00:40.316Z,96488.52
2022-10-13T20:04:03.212Z,96488.86
2022-10-13T20:06:47.334Z,96490.02
2022-10-13T20:09:16.953Z,96494.02
2022-10-13T20:12:40.812Z,96498.88
2022-10-13T20:15:24.990Z,96496.52
2022-10-13T20:17:56.514Z,96492.72
2022-10-13T20:20:27.786Z,96491.08
2022-10-13T20:23:00.090Z,96489.61
2022-10-13T20:25:28.927Z,96486.42
2022-10-13T20:27:57.724Z,96487.10
2022-10-13T20:30:27.663Z,96483.69
2022-10-13T20:32:58.564Z,96479.45
2022-10-13T20:45:17.726Z,96473.09
2022-10-13T20:47:47.041Z,96471.95
2022-10-13T20:50:29.007Z,96478.06
2022-10-13T20:52:56.956Z,96474.55
2022-10-13T20:55:24.890Z,96473.10
2022-10-13T20:57:52.983Z,96475.73
2022-10-13T21:07:50.474Z,96470.60
2022-10-13T21:11:15.696Z,96472.29
2022-10-13T21:14:12.144Z,96473.39
2022-10-13T21:16:42.006Z,96474.13
2022-10-13T21:20:00.912Z,96470.61
2022-10-13T21:22:31.388Z,96465.77
2022-10-13T21:25:07.206Z,96468.57
2022-10-13T21:27:35.212Z,96467.61
2022-10-13T21:30:05.016Z,96466.38
2022-10-13T21:32:32.978Z,96466.79
2022-10-13T21:35:05.332Z,96467.38
2022-10-13T21:37:35.019Z,96470.88
2022-10-13T21:40:04.879Z,96471.38
2022-10-13T21:42:33.835Z,96468.35
2022-10-13T21:45:34.799Z,96466.39
2022-10-13T21:48:02.944Z,96469.73
2022-10-13T21:51:22.650Z,96469.81
2022-10-13T22:10:39.869Z,96464.06
2022-10-13T22:13:24.250Z,96461.77
2022-10-13T22:16:22.381Z,96461.06
2022-10-13T22:19:21.293Z,96450.87
2022-10-13T22:21:50.177Z,96446.84
2022-10-13T22:47:33.793Z,96440.48
2022-10-13T23:22:07.444Z,96447.02
2022-10-13T23:24:35.443Z,96447.95
2022-10-13T23:27:03.497Z,96446.36
2022-10-13T23:29:32.081Z,96448.48
2022-10-13T23:32:00.032Z,96449.77
2022-10-13T23:34:29.367Z,96444.06
2022-10-13T23:36:57.637Z,96445.55
2022-10-13T23:39:25.875Z,96446.16
2022-10-13T23:41:53.826Z,96448.10
2022-10-13T23:44:21.849Z,96451.01
2022-10-13T23:46:51.297Z,96449.95
2022-10-13T23:49:22.709Z,96445.48
2022-10-13T23:51:50.550Z,96442.65
2022-10-13T23:54:19.151Z,96447.14
2022-10-13T23:56:47.089Z,96445.29
